Time;durP1;ratioP1;P1;durP2;ratioP2;P2;SDS_P1;SDS_P2;PMS_P1;PMS_P2;Temp;Humidity;BMP_temperature;BMP_pressure;BME280_temperature;BME280_humidity;BME280_pressure;Samples;Min_cycle;Max_cycle;Signal;HPM_P1;HPM_P2
2021/12/21 00:01:35;;;;;;;15.90;13.43;;;;;;;-6.24;100.00;98915.78;5043847;28;20863;-73
2021/12/21 00:04:03;;;;;;;20.47;14.27;;;;;;;-6.18;100.00;98925.09;5035170;28;20705;-73
2021/12/21 00:06:31;;;;;;;17.63;13.00;;;;;;;-6.23;100.00;98926.94;5035249;28;20815;-74
2021/12/21 00:08:59;;;;;;;21.57;13.97;;;;;;;-6.27;100.00;98927.00;5027653;28;20461;-74
2021/12/21 00:11:28;;;;;;;19.40;14.70;;;;;;;-6.30;100.00;98921.94;5042884;28;20890;-73
2021/12/21 00:14:13;;;;;;;19.30;15.60;;;;;;;-6.30;100.00;98915.91;5010431;28;20476;-72
2021/12/21 00:19:42;;;;;;;20.93;15.60;;;;;;;-6.27;100.00;98914.13;5036424;28;20536;-74
2021/12/21 00:22:25;;;;;;;18.83;13.33;;;;;;;-6.28;100.00;98908.97;5037579;28;20687;-74
2021/12/21 00:24:53;;;;;;;18.83;14.40;;;;;;;-6.32;100.00;98909.94;5025179;28;20474;-72
2021/12/21 00:27:21;;;;;;;21.70;14.10;;;;;;;-6.35;100.00;98913.44;5047487;28;20488;-74
2021/12/21 00:29:49;;;;;;;17.40;13.27;;;;;;;-6.37;100.00;98909.19;5012837;28;20887;-74
2021/12/21 00:32:19;;;;;;;18.87;14.67;;;;;;;-6.37;100.00;98907.47;5053208;28;20471;-75
2021/12/21 00:34:47;;;;;;;20.03;13.73;;;;;;;-6.41;100.00;98908.44;5035450;28;20470;-74
2021/12/21 00:37:18;;;;;;;17.67;13.57;;;;;;;-6.42;100.00;98911.91;5034333;28;21005;-75
2021/12/21 00:39:46;;;;;;;17.50;13.83;;;;;;;-6.47;100.00;98913.72;5037258;28;20461;-74
2021/12/21 00:42:14;;;;;;;16.40;12.73;;;;;;;-6.49;100.00;98903.44;5036789;28;20677;-74
2021/12/21 00:44:42;;;;;;;14.73;13.33;;;;;;;-6.47;100.00;98912.00;5027653;28;20461;-75
2021/12/21 00:47:10;;;;;;;15.23;13.57;;;;;;;-6.50;100.00;98912.06;5015756;28;21124;-75
2021/12/21 00:49:44;;;;;;;14.70;12.60;;;;;;;-6.55;100.00;98907.00;5038653;28;20680;-72
2021/12/21 00:52:12;;;;;;;16.93;12.67;;;;;;;-6.55;100.00;98911.31;5034064;28;20577;-74
2021/12/21 00:54:41;;;;;;;19.83;15.10;;;;;;;-6.60;100.00;98903.69;5038912;28;20457;-73
2021/12/21 00:57:09;;;;;;;16.27;13.47;;;;;;;-6.61;100.00;98904.56;5028740;28;20715;-74
2021/12/21 00:59:37;;;;;;;18.33;13.07;;;;;;;-6.64;100.00;98907.22;5036889;28;20449;-74
2021/12/21 01:02:05;;;;;;;17.03;13.50;;;;;;;-6.65;100.00;98912.38;5003630;28;20535;-75
2021/12/21 01:04:38;;;;;;;16.53;13.93;;;;;;;-6.63;100.00;98908.91;5041744;28;20470;-73
2021/12/21 01:07:17;;;;;;;16.30;13.83;;;;;;;-6.65;100.00;98904.66;5045057;28;20441;-73
2021/12/21 01:10:13;;;;;;;23.37;14.37;;;;;;;-6.68;100.00;98913.31;5032637;28;20438;-74
2021/12/21 01:12:50;;;;;;;17.97;13.93;;;;;;;-6.68;100.00;98905.59;5021030;28;20446;-72
2021/12/21 01:15:31;;;;;;;16.87;13.40;;;;;;;-6.72;100.00;98907.38;5046147;28;20456;-74
2021/12/21 01:18:04;;;;;;;13.70;12.00;;;;;;;-6.66;100.00;98900.38;5019105;28;20481;-73
2021/12/21 01:20:37;;;;;;;15.67;13.97;;;;;;;-6.74;100.00;98898.81;5035191;28;20468;-72
2021/12/21 01:26:00;;;;;;;15.77;12.23;;;;;;;-6.74;100.00;98901.41;5031219;28;20912;-73
2021/12/21 01:28:37;;;;;;;17.30;13.63;;;;;;;-6.76;100.00;98904.91;5025447;28;20900;-72
2021/12/21 01:31:18;;;;;;;13.37;11.67;;;;;;;-6.80;100.00;98901.53;5036124;28;20922;-73
2021/12/21 01:33:57;;;;;;;18.90;12.07;;;;;;;-6.83;100.00;98905.00;4999379;28;20837;-73
2021/12/21 01:36:32;;;;;;;15.07;12.50;;;;;;;-6.81;100.00;98911.91;5039326;28;20916;-72
2021/12/21 01:39:09;;;;;;;13.40;12.00;;;;;;;-6.83;100.00;98899.03;5035824;28;20437;-74
2021/12/21 01:41:43;;;;;;;14.77;12.90;;;;;;;-6.85;100.00;98904.19;5032559;28;20503;-73
2021/12/21 01:44:24;;;;;;;18.63;12.53;;;;;;;-6.87;100.00;98903.38;5025590;28;20508;-73
2021/12/21 01:49:41;;;;;;;17.07;12.37;;;;;;;-6.90;100.00;98893.13;5030651;28;20485;-72
2021/12/21 01:52:13;;;;;;;13.93;11.67;;;;;;;-6.94;100.00;98890.69;5036861;28;20461;-74
2021/12/21 01:54:42;;;;;;;15.27;13.50;;;;;;;-6.95;100.00;98892.38;5034589;28;21017;-72
2021/12/21 01:57:11;;;;;;;14.33;11.47;;;;;;;-6.98;100.00;98888.16;5035226;28;20834;-73
2021/12/21 01:59:40;;;;;;;15.63;13.37;;;;;;;-6.96;100.00;98884.72;5022399;28;20446;-73
2021/12/21 02:02:09;;;;;;;14.60;12.27;;;;;;;-7.00;100.00;98884.78;5035192;28;20446;-70
2021/12/21 02:04:37;;;;;;;17.73;14.10;;;;;;;-7.03;100.00;98871.94;4999740;28;20515;-72
2021/12/21 02:07:06;;;;;;;15.40;11.77;;;;;;;-7.05;100.00;98870.28;5037853;28;20541;-74
2021/12/21 02:09:37;;;;;;;17.77;13.67;;;;;;;-7.10;100.00;98865.22;5031626;28;20540;-72
2021/12/21 02:12:09;;;;;;;13.60;11.43;;;;;;;-7.06;100.00;98866.84;5033204;28;20728;-74
2021/12/21 02:14:38;;;;;;;14.07;11.50;;;;;;;-7.08;100.00;98872.91;5023298;28;20477;-73
2021/12/21 02:17:16;;;;;;;14.60;11.97;;;;;;;-7.10;100.00;98862.63;5037655;28;20752;-72
2021/12/21 02:20:01;;;;;;;13.33;11.97;;;;;;;-7.13;100.00;98862.69;4996883;28;20476;-73
2021/12/21 02:22:32;;;;;;;13.77;10.37;;;;;;;-7.15;100.00;98867.91;5033956;28;20445;-72
2021/12/21 02:25:08;;;;;;;13.20;11.13;;;;;;;-7.19;100.00;98862.84;5037401;28;20837;-72
2021/12/21 02:27:53;;;;;;;15.53;11.87;;;;;;;-7.12;100.00;98862.69;5030919;28;20445;-72
2021/12/21 02:30:21;;;;;;;13.90;11.40;;;;;;;-7.12;100.00;98859.25;5035199;28;20435;-74
2021/12/21 02:32:49;;;;;;;13.80;11.57;;;;;;;-7.15;100.00;98854.16;5020249;28;20767;-74
2021/12/21 02:35:19;;;;;;;13.90;12.30;;;;;;;-7.16;100.00;98853.31;5006704;28;20486;-74
2021/12/21 02:37:47;;;;;;;16.53;12.33;;;;;;;-7.15;100.00;98854.16;5027723;28;20476;-73
2021/12/21 02:40:15;;;;;;;13.07;11.77;;;;;;;-7.19;100.00;98855.09;5034724;28;20435;-73
2021/12/21 02:42:43;;;;;;;14.67;11.70;;;;;;;-7.21;100.00;98854.28;5033778;28;20450;-72
2021/12/21 02:45:11;;;;;;;12.97;10.77;;;;;;;-7.22;100.00;98853.44;5040990;28;20548;-72
2021/12/21 02:47:39;;;;;;;13.00;11.03;;;;;;;-7.25;100.00;98856.06;5021347;28;20446;-72
2021/12/21 02:50:09;;;;;;;16.80;12.33;;;;;;;-7.30;100.00;98853.59;5000877;28;20943;-71
2021/12/21 02:52:39;;;;;;;12.80;10.63;;;;;;;-7.27;100.00;98842.38;5031215;28;20445;-71
2021/12/21 02:55:08;;;;;;;12.57;11.30;;;;;;;-7.31;100.00;98851.91;5036879;28;20461;-72
2021/12/21 02:57:36;;;;;;;13.63;11.57;;;;;;;-7.33;100.00;98845.94;5020467;28;20450;-73
2021/12/21 03:00:08;;;;;;;15.67;11.67;;;;;;;-7.33;100.00;98847.66;5035775;28;20434;-72
2021/12/21 03:02:36;;;;;;;13.40;11.17;;;;;;;-7.33;100.00;98845.06;5006016;28;21072;-73
2021/12/21 03:05:06;;;;;;;16.30;12.40;;;;;;;-7.35;100.00;98852.84;5032065;28;20927;-73
2021/12/21 03:08:03;;;;;;;14.83;12.43;;;;;;;-7.37;100.00;98844.31;5011310;28;20741;-73
2021/12/21 03:10:36;;;;;;;16.40;11.77;;;;;;;-7.37;100.00;98848.59;5041475;28;20454;-74
2021/12/21 03:15:54;;;;;;;14.77;11.80;;;;;;;-7.40;100.00;98846.91;4999773;28;20446;-73
2021/12/21 03:18:22;;;;;;;15.23;10.87;;;;;;;-7.42;100.00;98849.53;5017554;28;20504;-71
2021/12/21 03:20:50;;;;;;;13.67;10.67;;;;;;;-7.45;100.00;98841.00;5033319;28;21088;-72
2021/12/21 03:23:18;;;;;;;12.73;10.83;;;;;;;-7.46;100.00;98844.47;4988272;28;20482;-72
2021/12/21 03:25:47;;;;;;;11.30;10.23;;;;;;;-7.47;100.00;98841.06;5025232;28;20496;-72
2021/12/21 03:28:15;;;;;;;16.00;11.40;;;;;;;-7.49;100.00;98840.25;5029442;28;20464;-71
2021/12/21 03:30:43;;;;;;;12.37;10.50;;;;;;;-7.48;100.00;98839.38;5032235;28;20977;-72
2021/12/21 03:33:11;;;;;;;11.87;10.67;;;;;;;-7.46;100.00;98837.59;5026175;28;20468;-70
2021/12/21 03:35:39;;;;;;;12.30;10.57;;;;;;;-7.43;100.00;98831.53;5027927;28;20457;-72
2021/12/21 03:38:07;;;;;;;11.87;10.63;;;;;;;-7.41;100.00;98840.06;4997534;28;20449;-72
2021/12/21 03:40:36;;;;;;;11.20;10.03;;;;;;;-7.41;100.00;98838.34;5024602;28;20597;-73
2021/12/21 03:43:05;;;;;;;16.07;11.53;;;;;;;-7.50;100.00;98840.25;5031814;28;20874;-74
2021/12/21 03:45:38;;;;;;;15.50;10.27;;;;;;;-7.49;100.00;98834.22;5030057;28;20954;-72
2021/12/21 03:48:12;;;;;;;13.77;11.40;;;;;;;-7.56;100.00;98830.94;5035309;28;20986;-70
2021/12/21 03:50:40;;;;;;;13.40;11.03;;;;;;;-7.61;100.00;98836.16;5020933;28;21123;-73
2021/12/21 03:53:08;;;;;;;19.30;10.73;;;;;;;-7.61;100.00;98837.88;4998713;28;20989;-71
2021/12/21 03:55:36;;;;;;;12.67;11.00;;;;;;;-7.65;100.00;98829.38;5035512;28;20718;-73
2021/12/21 03:58:06;;;;;;;12.57;10.47;;;;;;;-7.65;100.00;98829.38;5037095;28;21033;-71
2021/12/21 04:00:34;;;;;;;13.53;11.57;;;;;;;-7.71;100.00;98827.78;5024969;28;20869;-72
2021/12/21 04:03:02;;;;;;;10.50;9.33;;;;;;;-7.74;100.00;98830.41;5038358;28;20472;-71
2021/12/21 04:05:30;;;;;;;12.73;9.97;;;;;;;-7.74;100.00;98832.16;5021945;28;21063;-72
2021/12/21 04:07:58;;;;;;;11.10;10.10;;;;;;;-7.76;100.00;98833.91;4991233;28;20843;-72
2021/12/21 04:10:26;;;;;;;12.80;10.77;;;;;;;-7.79;100.00;98827.06;5033041;28;20473;-71
2021/12/21 04:12:54;;;;;;;18.40;11.40;;;;;;;-7.82;100.00;98824.56;5022181;28;20489;-72
2021/12/21 04:15:28;;;;;;;16.53;12.43;;;;;;;-7.83;100.00;98827.16;5023632;28;20561;-73
2021/12/21 04:17:56;;;;;;;15.67;11.17;;;;;;;-7.87;100.00;98829.78;5034379;28;20835;-73
2021/12/21 04:20:24;;;;;;;11.27;10.07;;;;;;;-7.90;100.00;98823.84;5025402;28;20814;-73
2021/12/21 04:22:52;;;;;;;10.50;9.43;;;;;;;-7.92;100.00;98826.44;5001484;28;21139;-70
2021/12/21 04:25:20;;;;;;;12.77;10.03;;;;;;;-7.90;100.00;98823.84;5035234;28;20487;-72
2021/12/21 04:27:48;;;;;;;12.00;10.63;;;;;;;-7.94;100.00;98828.19;5016218;28;21250;-73
2021/12/21 04:30:17;;;;;;;11.60;10.27;;;;;;;-7.92;100.00;98828.19;5033386;28;20490;-73
2021/12/21 04:32:46;;;;;;;13.63;10.43;;;;;;;-7.92;100.00;98826.44;5019440;28;20598;-71
2021/12/21 04:35:18;;;;;;;10.73;9.27;;;;;;;-7.93;100.00;98826.50;5031728;28;20771;-71
2021/12/21 04:37:50;;;;;;;11.17;9.83;;;;;;;-7.95;100.00;98829.06;5036046;28;20446;-71
2021/12/21 04:40:22;;;;;;;13.03;10.27;;;;;;;-7.98;100.00;98829.13;5008969;28;20560;-72
2021/12/21 04:42:50;;;;;;;12.80;9.03;;;;;;;-7.97;100.00;98824.81;5018776;28;20449;-71
2021/12/21 04:45:19;;;;;;;10.23;9.30;;;;;;;-7.99;100.00;98822.28;5037106;28;20469;-73
2021/12/21 04:47:48;;;;;;;16.03;9.23;;;;;;;-7.99;100.00;98827.44;5034543;28;20783;-71
2021/12/21 04:50:16;;;;;;;10.77;8.77;;;;;;;-8.01;100.00;98831.75;5037941;28;20547;-73
2021/12/21 04:52:44;;;;;;;12.30;9.93;;;;;;;-8.02;100.00;98827.50;5023695;28;20948;-71
2021/12/21 04:55:12;;;;;;;13.00;9.73;;;;;;;-8.03;100.00;98829.22;5007116;28;20497;-72
2021/12/21 04:57:41;;;;;;;14.97;10.20;;;;;;;-8.04;100.00;98822.38;5020432;28;20833;-70
2021/12/21 05:00:10;;;;;;;13.90;10.20;;;;;;;-8.04;100.00;98831.81;5022663;28;20583;-71
2021/12/21 05:02:39;;;;;;;11.17;10.00;;;;;;;-8.07;100.00;98827.56;5031316;28;20446;-71
2021/12/21 05:05:09;;;;;;;14.67;9.37;;;;;;;-8.06;100.00;98825.84;5036064;28;20539;-72
2021/12/21 05:07:40;;;;;;;11.87;8.93;;;;;;;-8.08;100.00;98825.88;5022779;28;20450;-70
2021/12/21 05:10:10;;;;;;;11.43;9.67;;;;;;;-8.08;100.00;98820.72;5001884;28;22723;-70
2021/12/21 05:12:40;;;;;;;11.10;9.37;;;;;;;-8.06;100.00;98820.72;5019156;28;20886;-71
2021/12/21 05:15:18;;;;;;;15.17;9.67;;;;;;;-8.05;100.00;98818.09;5023687;28;20558;-71
2021/12/21 05:17:46;;;;;;;12.30;8.77;;;;;;;-8.09;100.00;98825.91;5029069;28;20476;-72
2021/12/21 05:20:16;;;;;;;14.93;10.63;;;;;;;-8.09;100.00;98824.16;5033202;28;20443;-70
2021/12/21 05:22:44;;;;;;;13.53;9.53;;;;;;;-8.12;100.00;98833.69;5025600;28;20809;-72
2021/12/21 05:25:12;;;;;;;12.47;10.40;;;;;;;-8.18;100.00;98834.63;5027219;28;20482;-71
2021/12/21 05:27:40;;;;;;;14.47;10.23;;;;;;;-8.20;100.00;98833.81;5010026;28;20524;-72
2021/12/21 05:30:10;;;;;;;11.53;9.93;;;;;;;-8.21;100.00;98834.69;5028002;28;20483;-73
2021/12/21 05:32:38;;;;;;;13.00;10.50;;;;;;;-8.21;100.00;98825.22;5019254;28;20458;-70
2021/12/21 05:35:07;;;;;;;15.13;10.97;;;;;;;-8.25;100.00;98823.59;5031258;28;20531;-72
2021/12/21 05:37:40;;;;;;;9.77;8.83;;;;;;;-8.22;100.00;98828.69;5014018;28;20530;-73
2021/12/21 05:40:12;;;;;;;12.90;10.57;;;;;;;-8.23;100.00;98826.97;5026860;28;20875;-71
2021/12/21 05:42:42;;;;;;;11.83;9.50;;;;;;;-8.22;100.00;98833.81;5013012;28;20724;-69
2021/12/21 05:45:11;;;;;;;13.57;10.27;;;;;;;-8.25;100.00;98831.31;5022328;28;20470;-74
2021/12/21 05:47:39;;;;;;;14.87;9.53;;;;;;;-8.24;100.00;98834.75;5004629;28;20711;-74
2021/12/21 05:50:11;;;;;;;14.30;9.83;;;;;;;-8.25;100.00;98831.31;5033810;28;20551;-70
2021/12/21 05:52:40;;;;;;;12.70;10.00;;;;;;;-8.28;100.00;98828.78;5018715;28;21800;-72
2021/12/21 05:55:09;;;;;;;12.57;9.57;;;;;;;-8.26;100.00;98833.91;5029598;28;20549;-74
2021/12/21 05:57:37;;;;;;;11.70;9.03;;;;;;;-8.28;100.00;98821.06;5008182;28;20817;-70
2021/12/21 06:00:06;;;;;;;9.93;8.93;;;;;;;-8.31;100.00;98834.84;5028235;28;20537;-74
2021/12/21 06:02:34;;;;;;;11.20;8.70;;;;;;;-8.32;100.00;98835.72;4998176;28;20446;-73
2021/12/21 06:05:04;;;;;;;12.73;8.27;;;;;;;-8.31;100.00;98828.84;5032520;28;21037;-73
2021/12/21 06:07:32;;;;;;;10.60;9.33;;;;;;;-8.33;100.00;98828.00;5032986;28;20442;-68
2021/12/21 06:10:10;;;;;;;9.90;8.27;;;;;;;-8.32;100.00;98834.84;5014674;28;20715;-68
2021/12/21 06:12:55;;;;;;;10.57;9.17;;;;;;;-8.34;100.00;98828.88;5003436;28;20462;-74
2021/12/21 06:15:33;;;;;;;12.30;9.60;;;;;;;-8.27;100.00;98830.47;5023729;28;20445;-72
2021/12/21 06:26:22;;;;;;;11.40;9.27;;;;;;;-8.38;100.00;98832.38;5028891;28;20910;-70
2021/12/21 06:28:51;;;;;;;13.77;9.37;;;;;;;-8.41;100.00;98820.41;5001006;28;21030;-73
2021/12/21 06:31:19;;;;;;;10.30;9.23;;;;;;;-8.40;100.00;98829.00;5019217;28;20492;-72
2021/12/21 06:33:47;;;;;;;16.57;10.87;;;;;;;-8.43;100.00;98828.19;5010811;28;20851;-72
2021/12/21 06:36:16;;;;;;;12.53;9.60;;;;;;;-8.48;100.00;98829.09;5035305;28;20442;-71
2021/12/21 06:38:45;;;;;;;13.43;9.97;;;;;;;-8.52;100.00;98830.94;5034997;28;21009;-73
2021/12/21 06:41:13;;;;;;;12.80;10.00;;;;;;;-8.51;100.00;98834.34;5039995;28;20438;-73
2021/12/21 06:43:46;;;;;;;15.77;10.20;;;;;;;-8.44;100.00;98831.63;5001589;28;20618;-71
2021/12/21 06:46:20;;;;;;;12.13;10.20;;;;;;;-8.37;100.00;98829.78;5040190;28;20445;-73
2021/12/21 06:51:44;;;;;;;9.53;8.60;;;;;;;-8.40;100.00;98836.72;5021962;28;21124;-70
2021/12/21 06:54:13;;;;;;;9.83;8.80;;;;;;;-8.43;100.00;98832.44;5033270;28;20462;-71
2021/12/21 06:56:41;;;;;;;12.90;9.10;;;;;;;-8.42;100.00;98831.56;5023603;28;20450;-73
2021/12/21 06:59:10;;;;;;;12.90;9.80;;;;;;;-8.46;100.00;98832.50;5005112;28;20461;-72
2021/12/21 07:01:39;;;;;;;10.63;9.37;;;;;;;-8.49;100.00;98833.41;5030914;28;20458;-71
2021/12/21 07:04:08;;;;;;;14.77;10.97;;;;;;;-8.46;100.00;98835.94;5010029;28;20493;-72
2021/12/21 07:06:38;;;;;;;11.90;10.20;;;;;;;-8.50;100.00;98836.03;5031086;28;20450;-71
2021/12/21 07:09:13;;;;;;;20.33;11.57;;;;;;;-8.27;100.00;98838.19;5029433;28;20466;-71
2021/12/21 07:11:46;;;;;;;12.07;10.17;;;;;;;-8.41;100.00;98837.59;5095781;22;20771;-74
2021/12/21 07:19:47;;;;;;;17.43;11.63;;;;;;;-8.50;100.00;98839.47;5003113;28;20894;-69
2021/12/21 07:22:15;;;;;;;12.30;10.70;;;;;;;-8.41;100.00;98838.41;5021687;28;20457;-69
2021/12/21 07:24:49;;;;;;;16.07;11.13;;;;;;;-8.45;100.00;98835.06;5062301;22;20598;-74
2021/12/21 07:27:21;;;;;;;15.83;11.10;;;;;;;-8.47;100.00;98838.53;4981384;28;20455;-76
2021/12/21 07:29:51;;;;;;;12.17;10.80;;;;;;;-8.38;100.00;98845.25;4970381;28;20462;-73
2021/12/21 07:32:22;;;;;;;16.83;11.57;;;;;;;-8.33;100.00;98843.44;4988441;28;20487;-70
2021/12/21 07:34:53;;;;;;;14.30;11.40;;;;;;;-8.29;100.00;98839.94;4977425;28;20502;-70
2021/12/21 07:37:27;;;;;;;16.67;12.27;;;;;;;-8.29;100.00;98848.53;4987767;28;21285;-74
2021/12/21 07:39:58;;;;;;;22.97;12.43;;;;;;;-8.31;100.00;98851.97;4986708;28;20582;-79
2021/12/21 07:42:31;;;;;;;17.70;13.47;;;;;;;-8.21;100.00;98856.09;4988537;28;21313;-78
2021/12/21 07:45:12;;;;;;;14.13;11.63;;;;;;;-8.17;100.00;98855.16;4971688;28;20884;-74
2021/12/21 07:47:41;;;;;;;11.97;10.77;;;;;;;-8.17;100.00;98855.16;4991569;28;20499;-76
2021/12/21 07:50:16;;;;;;;19.37;11.67;;;;;;;-8.11;100.00;98854.22;4979432;28;21030;-77
2021/12/21 07:52:45;;;;;;;18.97;12.60;;;;;;;-8.09;100.00;98859.34;4987564;28;21016;-73
2021/12/21 07:55:18;;;;;;;16.43;11.23;;;;;;;-7.94;100.00;98851.34;4988832;28;20858;-76
2021/12/21 07:57:46;;;;;;;17.50;12.33;;;;;;;-7.34;100.00;98857.13;4997048;28;20476;-71
2021/12/21 08:00:30;;;;;;;15.83;11.63;;;;;;;-7.41;100.00;98858.09;4964961;28;20716;-69
2021/12/21 08:03:04;;;;;;;21.60;12.90;;;;;;;-7.48;100.00;98854.81;4998931;28;21344;-76
2021/12/21 08:05:35;;;;;;;19.57;12.47;;;;;;;-7.51;100.00;98857.44;4980075;28;20487;-75
2021/12/21 08:08:11;;;;;;;18.13;12.30;;;;;;;-7.57;100.00;98847.28;4996123;28;20820;-75
2021/12/21 08:10:46;;;;;;;17.97;13.50;;;;;;;-7.53;100.00;98858.34;4998597;28;20934;-76
2021/12/21 08:13:19;;;;;;;15.13;12.50;;;;;;;-7.19;100.00;98847.38;4991160;28;21489;-76
2021/12/21 08:15:49;;;;;;;28.37;25.40;;;;;;;-7.25;100.00;98850.09;4980347;28;20471;-70
2021/12/21 08:18:18;;;;;;;29.93;22.90;;;;;;;-7.26;100.00;98862.09;4998910;28;20474;-74
2021/12/21 08:20:49;;;;;;;19.53;15.13;;;;;;;-7.29;100.00;98862.16;4991406;28;20475;-69
2021/12/21 08:23:21;;;;;;;20.37;17.23;;;;;;;-7.28;100.00;98849.25;4982896;28;20697;-71
2021/12/21 08:25:49;;;;;;;16.40;14.63;;;;;;;-7.20;100.00;98854.25;4990416;28;20494;-71
2021/12/21 08:28:22;;;;;;;20.90;15.10;;;;;;;-7.18;100.00;98849.94;4994867;28;20436;-75
2021/12/21 08:31:56;;;;;;;19.30;13.20;;;;;;;-7.20;100.00;98848.25;4962710;28;20661;-77
2021/12/21 08:34:25;;;;;;;17.67;13.13;;;;;;;-7.09;100.00;98851.44;4938752;28;20802;-73
2021/12/21 08:36:56;;;;;;;15.10;13.57;;;;;;;-6.99;100.00;98850.41;4990896;28;20522;-71
2021/12/21 08:39:25;;;;;;;15.27;12.03;;;;;;;-6.88;100.00;98851.88;4974525;28;20969;-73
2021/12/21 08:41:57;;;;;;;15.20;12.60;;;;;;;-6.74;100.00;98854.16;4999507;28;20475;-72
2021/12/21 08:44:30;;;;;;;17.63;12.23;;;;;;;-6.69;100.00;98857.47;4982502;28;20520;-71
2021/12/21 08:47:00;;;;;;;26.77;21.70;;;;;;;-6.64;100.00;98858.22;4965749;28;20460;-72
2021/12/21 08:49:47;;;;;;;12.43;11.20;;;;;;;-6.55;100.00;98854.59;4982766;28;20816;-71
2021/12/21 08:52:17;;;;;;;23.60;16.27;;;;;;;-6.47;100.00;98847.50;4985101;28;20494;-71
2021/12/21 08:54:45;;;;;;;16.03;13.20;;;;;;;-6.43;100.00;98854.28;4985807;28;20945;-68
2021/12/21 08:57:15;;;;;;;17.63;13.27;;;;;;;-6.29;100.00;98855.69;4994985;28;20470;-74
2021/12/21 08:59:48;;;;;;;17.17;13.90;;;;;;;-6.18;100.00;98851.13;4994626;28;20456;-72
2021/12/21 09:02:18;;;;;;;16.13;11.97;;;;;;;-5.88;100.00;98842.59;4963834;28;20957;-72
2021/12/21 09:04:46;;;;;;;18.60;12.60;;;;;;;-5.58;100.00;98842.69;4997841;28;20471;-69
2021/12/21 09:07:14;;;;;;;13.47;12.17;;;;;;;-5.49;100.00;98842.44;4985642;28;20464;-72
2021/12/21 09:09:42;;;;;;;15.77;11.83;;;;;;;-5.50;100.00;98839.88;4974963;28;20464;-74
2021/12/21 09:12:11;;;;;;;17.47;13.33;;;;;;;-5.48;100.00;98845.88;4980044;28;20943;-72
2021/12/21 09:14:38;;;;;;;18.93;13.73;;;;;;;-5.33;100.00;98845.44;4994820;28;20487;-70
2021/12/21 09:17:07;;;;;;;19.57;14.40;;;;;;;-5.42;100.00;98845.69;4951322;28;20743;-75
2021/12/21 09:19:36;;;;;;;14.47;13.00;;;;;;;-5.37;100.00;98843.81;4993526;28;20445;-77
2021/12/21 09:22:05;;;;;;;14.60;12.90;;;;;;;-5.38;100.00;98845.56;4983915;28;20440;-79
2021/12/21 09:24:33;;;;;;;15.17;12.93;;;;;;;-5.38;100.00;98842.97;4985903;28;20507;-75
2021/12/21 09:27:01;;;;;;;13.87;12.57;;;;;;;-5.35;100.00;98844.63;4985546;28;20459;-74
2021/12/21 09:29:29;;;;;;;15.17;11.80;;;;;;;-5.30;100.00;98850.50;5003036;28;20443;-73
2021/12/21 09:31:57;;;;;;;16.27;12.80;;;;;;;-5.16;100.00;98849.25;4983084;28;20487;-76
2021/12/21 09:34:25;;;;;;;17.47;12.90;;;;;;;-5.07;100.00;98850.75;4983396;28;20512;-73
2021/12/21 09:36:57;;;;;;;15.73;12.40;;;;;;;-4.99;100.00;98848.78;4998725;28;20450;-73
2021/12/21 09:39:25;;;;;;;15.77;13.80;;;;;;;-4.93;100.00;98846.00;4983050;28;22194;-71
2021/12/21 09:41:53;;;;;;;19.90;12.80;;;;;;;-4.93;100.00;98846.00;4986486;28;20919;-73
2021/12/21 09:44:21;;;;;;;16.17;12.30;;;;;;;-4.79;100.00;98850.75;4995119;28;20464;-72
2021/12/21 09:46:49;;;;;;;18.10;13.27;;;;;;;-4.72;100.00;98849.72;4998819;28;20444;-75
2021/12/21 09:49:17;;;;;;;19.10;12.33;;;;;;;-4.51;100.00;98844.75;4969248;28;20729;-74
2021/12/21 09:51:45;;;;;;;19.87;13.40;;;;;;;-4.31;100.00;98851.03;4992346;28;20747;-74
2021/12/21 09:54:18;;;;;;;16.47;14.50;;;;;;;-4.21;100.00;98839.50;4976884;28;20684;-77
2021/12/21 09:56:46;;;;;;;15.17;13.47;;;;;;;-3.98;100.00;98845.63;4985275;28;20833;-74
2021/12/21 09:59:15;;;;;;;17.47;13.43;;;;;;;-4.00;100.00;98845.69;4983963;28;20740;-73
2021/12/21 10:01:46;;;;;;;13.87;11.77;;;;;;;-4.02;100.00;98838.88;4996792;28;20491;-75
2021/12/21 10:04:14;;;;;;;13.47;11.23;;;;;;;-4.02;100.00;98846.63;4969721;28;20872;-75
2021/12/21 10:06:47;;;;;;;15.73;12.67;;;;;;;-3.95;100.00;98842.97;4997428;28;21001;-76
2021/12/21 10:09:20;;;;;;;15.23;12.33;;;;;;;-3.87;100.00;98843.53;4987998;28;21140;-77
2021/12/21 10:12:06;;;;;;;16.60;13.57;;;;;;;-3.74;100.00;98841.38;4976647;28;20893;-71
2021/12/21 10:14:36;;;;;;;17.57;13.37;;;;;;;-3.73;100.00;98855.16;5000087;28;20467;-74
2021/12/21 10:17:06;;;;;;;15.43;12.23;;;;;;;-3.40;100.00;98857.47;4984343;28;20988;-74
2021/12/21 10:19:35;;;;;;;14.30;12.63;;;;;;;-3.42;100.00;98854.09;4996128;28;20536;-75
2021/12/21 10:22:11;;;;;;;14.13;12.70;;;;;;;-3.41;100.00;98846.28;4960993;28;20451;-75
2021/12/21 10:24:51;;;;;;;16.17;14.13;;;;;;;-3.40;100.00;98849.69;4979500;28;20494;-74
2021/12/21 10:27:22;;;;;;;16.07;12.93;;;;;;;-3.22;100.00;98848.19;4979870;28;20890;-76
2021/12/21 10:29:52;;;;;;;13.70;11.27;;;;;;;-3.29;100.00;98847.56;4992249;28;20444;-76
2021/12/21 10:32:22;;;;;;;16.23;12.13;;;;;;;-2.82;100.00;98849.28;4995041;28;20452;-73
2021/12/21 10:34:56;;;;;;;14.27;12.07;;;;;;;-2.88;100.00;98846.06;4994965;28;20471;-75
2021/12/21 10:37:27;;;;;;;18.13;16.33;;;;;;;-2.85;100.00;98838.19;4968212;28;20555;-76
2021/12/21 10:40:12;;;;;;;15.57;12.83;;;;;;;-2.65;100.00;98855.59;4980602;28;20693;-75
2021/12/21 10:42:48;;;;;;;16.33;11.23;;;;;;;-2.74;100.00;98836.03;4969153;28;20448;-72
2021/12/21 10:45:17;;;;;;;14.47;13.00;;;;;;;-2.66;100.00;98836.59;4997764;28;20466;-74
2021/12/21 10:47:46;;;;;;;12.67;10.63;;;;;;;-2.69;100.00;98834.09;4982748;28;20452;-75
2021/12/21 10:50:15;;;;;;;13.43;11.03;;;;;;;-2.51;100.00;98829.09;4998545;28;20525;-74
2021/12/21 10:52:48;;;;;;;14.30;11.30;;;;;;;-2.48;100.00;98831.56;4965353;28;20897;-75
2021/12/21 10:55:18;;;;;;;14.17;12.57;;;;;;;-2.49;100.00;98824.69;4983184;28;20570;-75
2021/12/21 10:57:46;;;;;;;18.27;13.10;;;;;;;-2.33;100.00;98824.91;4988221;28;21504;-74
2021/12/21 11:00:16;;;;;;;14.33;11.40;;;;;;;-2.21;100.00;98827.03;5000923;28;20638;-72
2021/12/21 11:02:45;;;;;;;10.57;9.30;;;;;;;-2.11;100.00;98822.28;5000987;28;20810;-74
2021/12/21 11:05:17;;;;;;;15.50;12.20;;;;;;;-2.08;100.00;98818.72;5004581;28;20552;-74
2021/12/21 11:07:49;;;;;;;15.73;11.83;;;;;;;-1.72;100.00;98812.00;4970973;28;21570;-74
2021/12/21 11:10:25;;;;;;;17.63;12.43;;;;;;;-1.67;100.00;98812.69;4986111;28;20823;-74
2021/12/21 11:13:10;;;;;;;16.00;10.93;;;;;;;-1.64;100.00;98812.53;4997955;28;20519;-74
2021/12/21 11:15:40;;;;;;;11.60;10.40;;;;;;;-1.62;100.00;98803.75;4983637;28;20947;-76
2021/12/21 11:18:09;;;;;;;11.87;9.90;;;;;;;-1.54;100.00;98798.22;4996879;28;20223;-72
2021/12/21 11:20:40;;;;;;;11.43;9.80;;;;;;;-1.52;100.00;98791.19;4999659;28;20945;-79
2021/12/21 11:23:09;;;;;;;13.43;10.10;;;;;;;-1.40;100.00;98786.34;4972002;28;20224;-74
2021/12/21 11:25:38;;;;;;;19.87;14.10;;;;;;;-1.35;100.00;98787.84;4986387;28;20557;-80
2021/12/21 11:28:06;;;;;;;9.63;8.70;;;;;;;-1.14;100.00;98790.38;5002172;28;20629;-74
2021/12/21 11:30:35;;;;;;;14.03;10.37;;;;;;;-1.12;100.00;98785.13;4986208;28;20505;-80
2021/12/21 11:33:06;;;;;;;12.37;9.20;;;;;;;-1.09;100.00;98783.22;5000203;28;20778;-77
2021/12/21 11:38:21;;;;;;;11.10;8.37;;;;;;;-0.74;100.00;98770.31;5001477;28;20209;-74
2021/12/21 11:40:50;;;;;;;12.27;8.60;;;;;;;-0.50;100.00;98764.81;4957320;28;20442;-75
2021/12/21 11:43:24;;;;;;;14.93;9.10;;;;;;;-0.33;100.00;98766.59;5000498;28;20217;-74
2021/12/21 11:45:56;;;;;;;8.90;8.10;;;;;;;-0.12;100.00;98756.03;4986213;28;20243;-75
2021/12/21 11:48:33;;;;;;;9.43;8.63;;;;;;;0.19;100.00;98758.81;5004066;28;20205;-76
2021/12/21 11:51:05;;;;;;;9.40;8.27;;;;;;;0.41;100.00;98756.78;5001044;28;20560;-78
2021/12/21 11:53:33;;;;;;;8.97;7.97;;;;;;;0.64;100.00;98754.72;5000357;28;20240;-76
2021/12/21 11:56:04;;;;;;;9.57;8.23;;;;;;;0.60;100.00;98753.19;4971360;28;20221;-74
2021/12/21 11:58:37;;;;;;;7.43;6.73;;;;;;;0.78;100.00;98756.56;4980763;28;20641;-78
2021/12/21 12:01:07;;;;;;;9.20;8.40;;;;;;;0.93;100.00;98744.47;5003309;28;20217;-74